Time;durP1;ratioP1;P1;durP2;ratioP2;P2;SDS_P1;SDS_P2;PMS_P1;PMS_P2;Temp;Humidity;BMP_temperature;BMP_pressure;BME280_temperature;BME280_humidity;BME280_pressure;Samples;Min_cycle;Max_cycle;Signal;HPM_P1;HPM_P2
2023/12/14 00:00:22;;;;;;;;;;;7.00;99.90;;;6.14;100.00;96816.63;4989937;28;1713;-67
2023/12/14 00:02:49;;;;;;;;;;;7.00;99.90;;;6.13;100.00;96821.81;4988987;28;1730;-68
2023/12/14 00:05:16;;;;;;;;;;;7.00;99.90;;;6.15;100.00;96828.59;4986692;28;1842;-69
2023/12/14 00:07:44;;;;;;;;;;;7.00;99.90;;;6.35;100.00;96838.19;4989891;28;1661;-68
2023/12/14 00:10:12;;;;;;;;;;;7.10;99.90;;;6.38;100.00;96838.06;4987845;28;1657;-68
2023/12/14 00:12:39;;;;;;;;;;;7.10;99.90;;;6.40;100.00;96849.16;4987337;28;1943;-68
2023/12/14 00:15:06;;;;;;;;;;;7.10;99.90;;;6.27;100.00;96842.75;4986453;28;1662;-69
2023/12/14 00:17:33;;;;;;;;;;;7.00;99.90;;;6.35;100.00;96852.81;5020082;28;1664;-68
2023/12/14 00:20:00;;;;;;;;;;;7.10;99.90;;;6.41;100.00;96848.25;4987299;28;1964;-68
2023/12/14 00:22:27;;;;;;;;;;;7.10;99.90;;;6.51;100.00;96850.50;4985524;28;1729;-68
2023/12/14 00:24:54;;;;;;;;;;;7.00;99.90;;;6.44;100.00;96850.72;4986562;28;1643;-67
2023/12/14 00:27:21;;;;;;;;;;;7.00;99.90;;;6.45;100.00;96857.56;4989490;28;1742;-68
2023/12/14 00:29:47;;;;;;;;;;;7.00;99.90;;;6.34;100.00;96851.97;4990187;28;1701;-68
2023/12/14 00:32:14;;;;;;;;;;;7.00;99.90;;;6.42;100.00;96856.81;4988417;28;2010;-68
2023/12/14 00:34:41;;;;;;;;;;;7.00;99.90;;;6.33;100.00;96860.59;4987158;28;1784;-68
2023/12/14 00:37:08;;;;;;;;;;;7.00;99.90;;;6.35;100.00;96863.13;4985700;28;1595;-68
2023/12/14 00:39:35;;;;;;;;;;;7.10;99.90;;;6.26;100.00;96867.69;4985095;28;1962;-67
2023/12/14 00:42:02;;;;;;;;;;;7.10;99.90;;;6.34;100.00;96870.00;4984047;28;1764;-67
2023/12/14 00:44:31;;;;;;;;;;;7.10;99.90;;;6.38;100.00;96873.31;4989784;28;2011;-68
2023/12/14 00:47:00;;;;;;;;;;;7.10;99.90;;;6.47;100.00;96878.94;4986948;28;1626;-67
2023/12/14 00:49:28;;;;;;;;;;;7.10;99.90;;;6.45;100.00;96888.50;4986255;28;1654;-68
2023/12/14 00:51:55;;;;;;;;;;;7.10;99.90;;;6.40;100.00;96892.97;4988479;28;1700;-69
2023/12/14 00:54:22;;;;;;;;;;;7.10;99.90;;;6.70;100.00;96895.28;4987219;28;1697;-69
2023/12/14 00:56:48;;;;;;;;;;;7.10;99.90;;;6.71;100.00;96902.16;4987188;28;1502;-69
2023/12/14 00:59:15;;;;;;;;;;;7.20;99.90;;;6.68;100.00;96909.97;4985702;28;1910;-68
2023/12/14 01:01:42;;;;;;;;;;;7.20;99.90;;;6.59;100.00;96908.63;4985719;28;1452;-68
2023/12/14 01:04:09;;;;;;;;;;;7.20;99.90;;;6.67;100.00;96914.31;4985091;28;1646;-69
2023/12/14 01:06:38;;;;;;;;;;;7.20;99.90;;;6.80;100.00;96921.59;4986436;28;1718;-67
2023/12/14 01:09:05;;;;;;;;;;;7.30;99.90;;;6.82;100.00;96919.78;4984517;28;1614;-68
2023/12/14 01:11:32;;;;;;;;;;;7.30;99.90;;;6.88;100.00;96922.97;4987571;28;1607;-68
2023/12/14 01:13:59;;;;;;;;;;;7.40;99.90;;;6.91;100.00;96928.03;4986484;28;1591;-69
2023/12/14 01:16:27;;;;;;;;;;;7.40;99.90;;;6.95;100.00;96925.31;4986792;28;1665;-68
2023/12/14 01:18:54;;;;;;;;;;;7.40;99.90;;;6.91;100.00;96929.75;5015514;28;1902;-68
2023/12/14 01:21:21;;;;;;;;;;;7.40;99.90;;;6.98;100.00;96945.81;4986783;28;1638;-68
2023/12/14 01:23:49;;;;;;;;;;;7.50;99.90;;;7.00;100.00;96938.88;4984804;28;1717;-67
2023/12/14 01:26:18;;;;;;;;;;;7.50;99.90;;;7.04;100.00;96943.84;4987144;28;1405;-69
2023/12/14 01:28:45;;;;;;;;;;;7.50;99.90;;;7.05;100.00;96939.56;4987563;28;1488;-68
2023/12/14 01:31:11;;;;;;;;;;;7.60;99.90;;;7.11;100.00;96947.88;5016136;28;1928;-68
2023/12/14 01:33:38;;;;;;;;;;;7.70;99.90;;;7.11;100.00;96939.31;4987534;28;1648;-67
2023/12/14 01:36:06;;;;;;;;;;;7.60;99.90;;;7.03;100.00;96949.09;4985032;28;1457;-68
2023/12/14 01:38:32;;;;;;;;;;;7.60;99.90;;;6.97;100.00;96945.00;5015659;28;1902;-68
2023/12/14 01:40:59;;;;;;;;;;;7.60;99.90;;;7.08;100.00;96952.34;4983307;28;1657;-68
2023/12/14 01:43:26;;;;;;;;;;;7.60;99.90;;;6.88;100.00;96950.50;4985716;28;2200;-68
2023/12/14 01:45:53;;;;;;;;;;;7.60;99.90;;;6.76;100.00;96956.13;4987487;28;1441;-68
2023/12/14 01:48:21;;;;;;;;;;;7.60;99.90;;;6.80;100.00;96955.13;4982624;28;1616;-68
2023/12/14 01:50:48;;;;;;;;;;;7.60;99.90;;;6.83;100.00;96968.75;4986592;28;1996;-68
2023/12/14 01:53:15;;;;;;;;;;;7.60;99.90;;;7.05;100.00;96973.94;4985787;28;1767;-67
2023/12/14 01:55:42;;;;;;;;;;;7.50;99.90;;;7.15;100.00;96981.31;4987039;28;1646;-68
2023/12/14 01:58:09;;;;;;;;;;;7.50;99.90;;;6.88;100.00;96990.03;4987455;28;1602;-68
2023/12/14 02:00:50;;;;;;;;;;;7.40;99.90;;;6.88;100.00;96986.63;4985287;28;1914;-68
2023/12/14 02:03:16;;;;;;;;;;;7.50;99.90;;;6.95;100.00;96992.41;4985483;28;1600;-69
2023/12/14 02:05:43;;;;;;;;;;;7.50;99.90;;;6.98;100.00;97000.00;4987426;28;1597;-69
2023/12/14 02:08:10;;;;;;;;;;;7.60;99.90;;;7.09;100.00;97006.47;4987224;28;1569;-68
2023/12/14 02:10:40;;;;;;;;;;;7.50;99.90;;;7.04;100.00;97010.94;4984792;28;1549;-68
2023/12/14 02:13:07;;;;;;;;;;;7.60;99.90;;;6.97;100.00;97022.41;4984182;28;1521;-68
2023/12/14 02:15:34;;;;;;;;;;;7.60;99.90;;;6.74;100.00;97015.50;4982280;28;1588;-67
2023/12/14 02:18:01;;;;;;;;;;;7.60;99.90;;;6.84;100.00;97019.44;4985321;28;1817;-68
2023/12/14 02:20:27;;;;;;;;;;;7.50;99.90;;;6.79;100.00;97023.91;4981852;28;1910;-68
2023/12/14 02:22:55;;;;;;;;;;;7.50;99.90;;;7.09;100.00;97027.13;4986739;28;1695;-68
2023/12/14 02:25:23;;;;;;;;;;;7.50;99.90;;;6.90;100.00;97026.09;4983657;28;1752;-69
2023/12/14 02:27:51;;;;;;;;;;;7.50;99.90;;;6.89;100.00;97032.19;4984260;28;1510;-69
2023/12/14 02:30:18;;;;;;;;;;;7.50;99.90;;;6.95;100.00;97028.53;4980902;28;1638;-68
2023/12/14 02:32:45;;;;;;;;;;;7.50;99.90;;;6.91;100.00;97032.94;5018780;28;1667;-68
2023/12/14 02:35:12;;;;;;;;;;;7.50;99.90;;;7.03;100.00;97034.25;4986343;28;1458;-67
2023/12/14 02:37:40;;;;;;;;;;;7.50;99.90;;;7.13;100.00;97031.25;4986657;28;1390;-68
2023/12/14 02:40:08;;;;;;;;;;;7.60;99.90;;;7.09;100.00;97034.00;4983634;28;1915;-67
2023/12/14 02:42:35;;;;;;;;;;;7.60;99.90;;;6.98;100.00;97038.72;4986796;28;1551;-69
2023/12/14 02:45:03;;;;;;;;;;;7.60;99.90;;;6.84;100.00;97041.81;4989282;28;1519;-68
2023/12/14 02:47:30;;;;;;;;;;;7.50;99.90;;;6.90;100.00;97047.59;4991040;28;1410;-68
2023/12/14 02:49:57;;;;;;;;;;;7.50;99.90;;;6.90;100.00;97057.91;4989206;28;1643;-68
2023/12/14 02:52:24;;;;;;;;;;;7.50;99.90;;;6.48;100.00;97060.28;4988120;28;1641;-67
2023/12/14 02:54:50;;;;;;;;;;;7.50;99.90;;;6.57;100.00;97070.28;4987526;28;1736;-68
2023/12/14 02:57:17;;;;;;;;;;;7.40;99.90;;;6.58;100.00;97069.38;4986582;28;1723;-68
2023/12/14 02:59:44;;;;;;;;;;;7.40;99.90;;;6.58;100.00;97082.25;4990217;28;2001;-68
2023/12/14 03:02:11;;;;;;;;;;;7.30;99.90;;;6.72;100.00;97083.53;4990181;28;1814;-68
2023/12/14 03:04:41;;;;;;;;;;;7.30;99.90;;;6.62;100.00;97078.69;4988002;28;1453;-69
2023/12/14 03:07:09;;;;;;;;;;;7.30;99.90;;;6.57;100.00;97090.03;4988225;28;1646;-69
2023/12/14 03:09:41;;;;;;;;;;;7.30;99.90;;;6.50;100.00;97097.16;4990491;28;1500;-68
2023/12/14 03:12:08;;;;;;;;;;;7.30;99.90;;;6.51;100.00;97100.59;4987811;28;1440;-68
2023/12/14 03:14:35;;;;;;;;;;;7.30;99.90;;;6.45;100.00;97109.34;4985872;28;2227;-69
2023/12/14 03:17:02;;;;;;;;;;;7.30;99.90;;;6.58;100.00;97113.19;4989909;28;1421;-68
2023/12/14 03:19:29;;;;;;;;;;;7.20;99.90;;;6.51;100.00;97116.88;4987072;28;2001;-68
2023/12/14 03:21:55;;;;;;;;;;;7.20;99.90;;;6.57;100.00;97118.41;4982002;28;1606;-69
2023/12/14 03:24:22;;;;;;;;;;;7.20;99.90;;;6.63;100.00;97123.34;4988794;28;1608;-68
2023/12/14 03:26:49;;;;;;;;;;;7.20;99.90;;;6.59;100.00;97122.63;4990850;28;1413;-68
2023/12/14 03:29:16;;;;;;;;;;;7.30;99.90;;;6.59;100.00;97124.34;4987554;28;1628;-67
2023/12/14 03:31:43;;;;;;;;;;;7.30;99.90;;;6.57;100.00;97131.28;4987820;28;1604;-68
2023/12/14 03:34:10;;;;;;;;;;;7.30;99.90;;;6.58;100.00;97130.41;4988978;28;1513;-69
2023/12/14 03:36:37;;;;;;;;;;;7.30;99.90;;;6.70;100.00;97138.59;4987643;28;1723;-68
2023/12/14 03:39:03;;;;;;;;;;;7.30;99.90;;;6.61;100.00;97141.44;4988583;28;2009;-68
2023/12/14 03:41:30;;;;;;;;;;;7.30;99.90;;;6.70;100.00;97146.34;4984342;28;1578;-68
2023/12/14 03:43:57;;;;;;;;;;;7.30;99.90;;;6.74;100.00;97144.47;4988290;28;1605;-69
2023/12/14 03:46:24;;;;;;;;;;;7.30;99.90;;;6.82;100.00;97144.19;4988215;28;1557;-67
2023/12/14 03:48:51;;;;;;;;;;;7.40;99.90;;;6.73;100.00;97147.97;4987786;28;1553;-69
2023/12/14 03:51:19;;;;;;;;;;;7.40;99.90;;;6.74;100.00;97156.53;4986769;28;1561;-69
2023/12/14 03:53:47;;;;;;;;;;;7.40;99.90;;;6.83;100.00;97153.63;4986870;28;1609;-68
2023/12/14 03:56:16;;;;;;;;;;;7.40;99.90;;;6.92;100.00;97163.63;4984664;28;1527;-68
2023/12/14 03:58:43;;;;;;;;;;;7.40;99.90;;;6.70;100.00;97169.53;4987795;28;1795;-68
2023/12/14 04:01:20;;;;;;;;;;;7.40;99.90;;;6.91;100.00;97170.53;4984915;28;1985;-68
2023/12/14 04:03:48;;;;;;;;;;;7.40;99.90;;;6.99;100.00;97172.00;4971156;28;1639;-68
2023/12/14 04:06:15;;;;;;;;;;;7.40;99.90;;;7.02;100.00;97180.47;5018272;28;1718;-68
2023/12/14 04:08:42;;;;;;;;;;;7.50;99.90;;;6.99;100.00;97183.16;4989068;28;1657;-69
2023/12/14 04:11:09;;;;;;;;;;;7.50;99.90;;;6.87;100.00;97191.34;4990136;28;1764;-67
2023/12/14 04:13:36;;;;;;;;;;;7.50;99.90;;;6.68;100.00;97196.25;4988654;28;1382;-68
2023/12/14 04:16:03;;;;;;;;;;;7.50;99.90;;;6.72;100.00;97207.31;4986180;28;1616;-68
2023/12/14 04:18:30;;;;;;;;;;;7.40;99.90;;;6.70;100.00;97200.50;4989309;28;1433;-68
2023/12/14 04:20:57;;;;;;;;;;;7.30;99.90;;;6.67;100.00;97207.47;4985405;28;1934;-68
2023/12/14 04:23:24;;;;;;;;;;;7.30;99.90;;;6.54;100.00;97214.75;4990631;28;1573;-67
2023/12/14 04:25:51;;;;;;;;;;;7.30;99.90;;;6.61;100.00;97218.81;5018236;28;1556;-67
2023/12/14 04:28:18;;;;;;;;;;;7.20;99.90;;;6.52;100.00;97215.69;4986837;28;1545;-68
2023/12/14 04:30:45;;;;;;;;;;;7.20;99.90;;;6.52;100.00;97229.44;4987082;28;1610;-68
2023/12/14 04:33:12;;;;;;;;;;;7.20;99.90;;;6.49;100.00;97224.38;4988401;28;1617;-68
2023/12/14 04:35:40;;;;;;;;;;;7.20;99.90;;;6.57;100.00;97227.56;4991097;28;1536;-68
2023/12/14 04:38:07;;;;;;;;;;;7.20;99.90;;;6.57;100.00;97237.88;4986572;28;1747;-67
2023/12/14 04:40:34;;;;;;;;;;;7.20;99.90;;;6.72;100.00;97243.44;4988323;28;1907;-68
2023/12/14 04:43:00;;;;;;;;;;;7.20;99.90;;;6.75;100.00;97236.44;4991280;28;1825;-68
2023/12/14 04:45:27;;;;;;;;;;;7.30;99.90;;;6.89;100.00;97242.00;4987965;28;1449;-68
2023/12/14 04:47:54;;;;;;;;;;;7.30;99.90;;;7.02;100.00;97239.81;4986810;28;1644;-68
2023/12/14 04:50:21;;;;;;;;;;;7.40;99.90;;;6.99;100.00;97245.09;4988549;28;1648;-68
2023/12/14 04:52:48;;;;;;;;;;;7.40;99.90;;;7.14;100.00;97256.66;4988813;28;1393;-69
2023/12/14 04:55:15;;;;;;;;;;;7.50;99.90;;;6.97;100.00;97252.03;4986698;28;1647;-68
2023/12/14 04:57:42;;;;;;;;;;;7.50;99.90;;;6.90;100.00;97248.00;4986207;28;1590;-68
2023/12/14 05:00:09;;;;;;;;;;;7.50;99.90;;;6.94;100.00;97265.06;5016429;28;1947;-68
2023/12/14 05:02:38;;;;;;;;;;;7.50;99.90;;;6.90;100.00;97259.16;5017169;28;1546;-68
2023/12/14 05:05:05;;;;;;;;;;;7.50;99.90;;;6.70;100.00;97262.41;4987535;28;1441;-68
2023/12/14 05:07:33;;;;;;;;;;;7.50;99.90;;;6.53;100.00;97261.25;4987745;28;1614;-68
2023/12/14 05:10:00;;;;;;;;;;;7.40;99.90;;;6.79;100.00;97268.13;4989894;28;1545;-68
2023/12/14 05:12:28;;;;;;;;;;;7.40;99.90;;;6.65;100.00;97279.72;4986295;28;1496;-68
2023/12/14 05:14:55;;;;;;;;;;;7.40;99.90;;;6.49;100.00;97279.38;4986436;28;1605;-68
2023/12/14 05:17:22;;;;;;;;;;;7.30;99.90;;;6.45;100.00;97276.94;4987037;28;1591;-69
2023/12/14 05:19:49;;;;;;;;;;;7.30;99.90;;;6.44;100.00;97288.97;5016706;28;1942;-69
2023/12/14 05:22:17;;;;;;;;;;;7.20;99.90;;;6.46;100.00;97288.94;4986598;28;1456;-68
2023/12/14 05:24:46;;;;;;;;;;;7.20;99.90;;;6.69;100.00;97288.22;5017400;28;1470;-68
2023/12/14 05:27:14;;;;;;;;;;;7.20;99.90;;;6.59;100.00;97292.84;4986317;28;1422;-68
2023/12/14 05:29:41;;;;;;;;;;;7.20;99.90;;;6.64;100.00;97296.09;4986338;28;1504;-68
2023/12/14 05:32:08;;;;;;;;;;;7.20;99.90;;;6.47;100.00;97303.50;4985853;28;1603;-68
2023/12/14 05:34:35;;;;;;;;;;;7.30;99.90;;;6.44;100.00;97306.19;5018393;28;1549;-69
2023/12/14 05:37:02;;;;;;;;;;;7.20;99.90;;;6.46;100.00;97322.47;4984803;28;1662;-68
2023/12/14 05:39:28;;;;;;;;;;;7.20;99.90;;;6.52;100.00;97322.25;4986939;28;1910;-68
2023/12/14 05:41:55;;;;;;;;;;;7.10;99.90;;;6.47;100.00;97329.28;4989127;28;1535;-69
2023/12/14 05:44:22;;;;;;;;;;;7.10;99.90;;;6.46;100.00;97337.94;4987477;28;1848;-69
2023/12/14 05:46:49;;;;;;;;;;;7.10;99.90;;;6.44;100.00;97337.97;4985547;28;1587;-68
2023/12/14 05:49:16;;;;;;;;;;;7.10;99.90;;;6.50;100.00;97347.28;4986342;28;1445;-68
2023/12/14 05:51:43;;;;;;;;;;;7.10;99.90;;;6.33;100.00;97352.91;4983810;28;1456;-68
2023/12/14 05:54:10;;;;;;;;;;;7.20;99.90;;;6.61;100.00;97362.41;4987664;28;1546;-69
2023/12/14 05:56:37;;;;;;;;;;;7.20;99.90;;;6.50;100.00;97357.59;4983861;28;1468;-68
2023/12/14 05:59:06;;;;;;;;;;;7.20;99.90;;;6.45;100.00;97370.63;4985838;28;1666;-69
2023/12/14 06:01:33;;;;;;;;;;;7.10;99.90;;;6.53;100.00;97364.38;4986872;28;2007;-67
2023/12/14 06:04:00;;;;;;;;;;;7.10;99.90;;;6.45;100.00;97365.47;4988780;28;1442;-69
2023/12/14 06:06:27;;;;;;;;;;;7.20;99.90;;;6.63;100.00;97370.94;4985134;28;1507;-68
2023/12/14 06:08:54;;;;;;;;;;;7.20;99.90;;;6.55;100.00;97372.91;4986449;28;1638;-68
2023/12/14 06:11:20;;;;;;;;;;;7.20;99.90;;;6.30;100.00;97388.25;4987527;28;1511;-68
2023/12/14 06:13:47;;;;;;;;;;;7.20;99.90;;;6.31;100.00;97395.09;4983610;28;1382;-68
2023/12/14 06:16:14;;;;;;;;;;;7.10;99.90;;;6.15;100.00;97394.69;4986681;28;1106;-68
2023/12/14 06:18:43;;;;;;;;;;;7.10;99.90;;;6.31;100.00;97408.81;4987117;28;1659;-68
2023/12/14 06:21:11;;;;;;;;;;;7.00;99.90;;;6.13;100.00;97420.47;4984906;28;1914;-68
2023/12/14 06:23:38;;;;;;;;;;;7.00;99.90;;;6.10;100.00;97428.31;4986381;28;1352;-68
2023/12/14 06:26:05;;;;;;;;;;;7.00;99.90;;;6.30;100.00;97434.66;4984332;28;1113;-68
2023/12/14 06:28:32;;;;;;;;;;;7.00;99.90;;;6.37;100.00;97449.06;4987451;28;1262;-67
2023/12/14 06:31:01;;;;;;;;;;;7.00;99.90;;;6.42;100.00;97448.03;4986571;28;1154;-69
2023/12/14 06:33:28;;;;;;;;;;;7.10;99.90;;;6.53;100.00;97445.16;4988074;28;1446;-69
2023/12/14 06:35:55;;;;;;;;;;;7.10;99.90;;;6.49;100.00;97449.53;4988870;28;1102;-68
2023/12/14 06:38:21;;;;;;;;;;;7.10;99.90;;;6.24;100.00;97456.28;4987757;28;1085;-68
2023/12/14 06:40:49;;;;;;;;;;;7.10;99.90;;;6.19;100.00;97458.97;4988444;28;1898;-68
2023/12/14 06:43:16;;;;;;;;;;;7.10;99.90;;;6.13;100.00;97458.28;4987485;28;1277;-68
2023/12/14 06:45:45;;;;;;;;;;;7.00;99.90;;;6.28;100.00;97466.47;5019260;28;1070;-68
2023/12/14 06:48:12;;;;;;;;;;;7.00;99.90;;;6.31;100.00;97465.53;4986691;28;1106;-67
2023/12/14 06:50:38;;;;;;;;;;;7.00;99.90;;;6.29;100.00;97472.44;5018888;28;993;-68
2023/12/14 06:53:05;;;;;;;;;;;7.00;99.90;;;6.33;100.00;97460.34;4987729;28;1462;-68
2023/12/14 06:55:32;;;;;;;;;;;7.10;99.90;;;6.42;100.00;97471.22;4987620;28;1103;-68
2023/12/14 06:57:59;;;;;;;;;;;7.10;99.90;;;6.53;100.00;97481.25;4986841;28;1133;-69
2023/12/14 07:00:26;;;;;;;;;;;7.00;99.90;;;6.26;100.00;97483.69;4986764;28;2005;-67
2023/12/14 07:02:53;;;;;;;;;;;7.00;99.90;;;6.35;100.00;97489.50;4988493;28;1159;-68
2023/12/14 07:05:20;;;;;;;;;;;7.00;99.90;;;6.33;100.00;97491.28;4987955;28;1087;-68
2023/12/14 07:07:47;;;;;;;;;;;7.00;99.90;;;6.42;100.00;97501.34;4986202;28;1101;-68
2023/12/14 07:10:14;;;;;;;;;;;7.00;99.90;;;6.43;100.00;97506.47;4986632;28;1055;-68
2023/12/14 07:12:41;;;;;;;;;;;7.10;99.90;;;6.34;100.00;97505.84;4987464;28;1253;-68
2023/12/14 07:15:08;;;;;;;;;;;7.00;99.90;;;6.47;100.00;97512.38;4985864;28;1734;-68
2023/12/14 07:17:35;;;;;;;;;;;7.10;99.90;;;6.51;100.00;97513.97;4987001;28;1090;-68
2023/12/14 07:20:02;;;;;;;;;;;7.10;99.90;;;6.56;100.00;97526.75;4986085;28;1910;-68
2023/12/14 07:22:29;;;;;;;;;;;7.10;99.90;;;6.51;100.00;97521.72;4989118;28;1291;-68
2023/12/14 07:24:56;;;;;;;;;;;7.10;99.90;;;6.54;100.00;97523.34;4987795;28;1096;-69
2023/12/14 07:27:26;;;;;;;;;;;7.20;99.90;;;6.52;100.00;97525.13;5018509;28;1387;-68
2023/12/14 07:29:53;;;;;;;;;;;7.20;99.90;;;6.62;100.00;97531.75;4989309;28;1428;-68
2023/12/14 07:32:19;;;;;;;;;;;7.20;99.90;;;6.69;100.00;97539.25;4989341;28;1292;-69
2023/12/14 07:34:47;;;;;;;;;;;7.20;99.90;;;6.69;100.00;97536.69;4989948;28;1102;-68
2023/12/14 07:37:14;;;;;;;;;;;7.20;99.90;;;6.67;100.00;97540.19;5020325;28;1645;-68
2023/12/14 07:39:41;;;;;;;;;;;7.20;99.90;;;6.51;100.00;97538.91;4989960;28;1125;-68
2023/12/14 07:42:08;;;;;;;;;;;7.20;99.90;;;6.50;100.00;97545.81;4989425;28;1914;-69
2023/12/14 07:44:35;;;;;;;;;;;7.20;99.90;;;6.46;100.00;97547.63;4989559;28;1122;-68
2023/12/14 07:47:02;;;;;;;;;;;7.20;99.90;;;6.44;100.00;97559.72;4990723;28;1085;-69
2023/12/14 07:49:29;;;;;;;;;;;7.20;99.90;;;6.58;100.00;97567.06;4989298;28;1059;-69
2023/12/14 07:51:56;;;;;;;;;;;7.20;99.90;;;6.61;100.00;97572.13;5022746;28;1253;-68
2023/12/14 07:54:25;;;;;;;;;;;7.20;99.90;;;6.68;100.00;97581.44;4990712;28;1102;-68
2023/12/14 07:56:52;;;;;;;;;;;7.20;99.90;;;6.57;100.00;97578.28;4989903;28;1061;-68
2023/12/14 07:59:19;;;;;;;;;;;7.30;99.90;;;6.69;100.00;97582.28;4989473;28;1037;-68
2023/12/14 08:01:47;;;;;;;;;;;7.30;99.90;;;6.83;100.00;97593.06;4989339;28;1914;-68
2023/12/14 08:04:14;;;;;;;;;;;7.30;99.90;;;6.77;100.00;97600.09;4988373;28;1735;-68
2023/12/14 08:06:41;;;;;;;;;;;7.40;99.90;;;6.90;100.00;97601.47;4990736;28;1100;-68
2023/12/14 08:09:08;;;;;;;;;;;7.40;99.90;;;6.77;100.00;97602.69;4991755;28;1006;-68
2023/12/14 08:11:35;;;;;;;;;;;7.50;99.90;;;6.70;100.00;97613.19;4987974;28;1070;-68
2023/12/14 08:14:02;;;;;;;;;;;7.40;99.90;;;6.88;100.00;97621.31;4989109;28;1350;-68
2023/12/14 08:16:30;;;;;;;;;;;7.40;99.90;;;6.94;100.00;97625.47;4981140;28;1464;-68
2023/12/14 08:18:57;;;;;;;;;;;7.50;99.90;;;6.99;100.00;97619.28;4986403;28;1565;-69
2023/12/14 08:21:24;;;;;;;;;;;7.60;99.90;;;6.92;100.00;97622.91;5019410;28;1898;-68
2023/12/14 08:23:51;;;;;;;;;;;7.60;99.90;;;7.03;100.00;97620.06;4990502;28;1341;-68
2023/12/14 08:26:18;;;;;;;;;;;7.60;99.90;;;6.95;100.00;97625.41;4988897;28;997;-68
2023/12/14 08:28:44;;;;;;;;;;;7.50;99.90;;;6.99;100.00;97621.03;5023070;28;1296;-68
2023/12/14 08:31:12;;;;;;;;;;;7.60;99.90;;;7.17;100.00;97632.56;4989398;28;1319;-68
2023/12/14 08:33:42;;;;;;;;;;;7.60;99.90;;;7.05;100.00;97629.44;4989774;28;1335;-68
2023/12/14 08:36:15;;;;;;;;;;;7.70;99.90;;;7.13;100.00;97640.38;4989027;28;1307;-68
2023/12/14 08:38:42;;;;;;;;;;;7.70;99.90;;;7.02;100.00;97646.72;4990789;28;1280;-67
2023/12/14 08:41:15;;;;;;;;;;;7.70;99.90;;;6.93;100.00;97650.41;4989095;28;1918;-68
2023/12/14 08:43:43;;;;;;;;;;;7.70;99.90;;;7.01;100.00;97666.53;4991578;28;1332;-68
2023/12/14 08:46:10;;;;;;;;;;;7.70;99.90;;;7.25;100.00;97665.03;4989160;28;1117;-68
2023/12/14 08:48:37;;;;;;;;;;;7.70;99.90;;;7.18;100.00;97668.66;4989563;28;967;-69
2023/12/14 08:51:05;;;;;;;;;;;7.70;99.90;;;7.15;100.00;97670.47;4992523;28;1126;-68
2023/12/14 08:53:32;;;;;;;;;;;7.70;99.90;;;7.19;100.00;97670.34;4987541;28;1292;-68
2023/12/14 08:56:03;;;;;;;;;;;7.70;99.90;;;7.07;100.00;97681.00;4988304;28;1284;-68
2023/12/14 08:58:30;;;;;;;;;;;7.70;99.90;;;7.19;100.00;97687.59;4988713;28;1106;-68
2023/12/14 09:00:56;;;;;;;;;;;7.70;99.90;;;7.13;100.00;97684.25;4987403;28;1911;-68
2023/12/14 09:03:23;;;;;;;;;;;7.70;99.90;;;7.22;100.00;97687.50;4988852;28;1387;-68
2023/12/14 09:05:50;;;;;;;;;;;7.60;99.90;;;7.35;100.00;97691.44;4989776;28;1082;-68
2023/12/14 09:08:17;;;;;;;;;;;7.70;99.90;;;7.29;100.00;97699.34;4989864;28;1037;-68
2023/12/14 09:10:44;;;;;;;;;;;7.80;99.90;;;7.28;100.00;97700.25;4987514;28;1098;-68
2023/12/14 09:13:12;;;;;;;;;;;7.80;99.90;;;7.45;100.00;97700.59;4985956;28;1372;-68
2023/12/14 09:15:38;;;;;;;;;;;7.80;99.90;;;7.26;100.00;97705.44;4983066;28;1323;-68
2023/12/14 09:18:06;;;;;;;;;;;7.80;99.90;;;6.88;100.00;97709.88;4987087;28;2026;-68
2023/12/14 09:20:35;;;;;;;;;;;7.70;99.90;;;6.95;100.00;97713.16;4985626;28;1914;-68
2023/12/14 09:23:01;;;;;;;;;;;7.70;99.90;;;6.72;100.00;97713.72;4987648;28;1417;-67
2023/12/14 09:25:29;;;;;;;;;;;7.60;99.90;;;6.73;100.00;97735.22;4985698;28;1354;-68
2023/12/14 09:27:56;;;;;;;;;;;7.50;99.90;;;6.89;100.00;97737.38;4987414;28;1272;-68
2023/12/14 09:30:22;;;;;;;;;;;7.50;99.90;;;6.94;100.00;97741.59;4988190;28;1101;-69
2023/12/14 09:32:49;;;;;;;;;;;7.50;99.90;;;6.90;100.00;97754.56;4990358;28;1269;-68
2023/12/14 09:35:17;;;;;;;;;;;7.50;99.90;;;6.88;100.00;97747.72;4986710;28;1390;-68
2023/12/14 09:37:44;;;;;;;;;;;7.40;99.90;;;6.64;100.00;97757.78;4989069;28;1060;-68
2023/12/14 09:40:11;;;;;;;;;;;7.40;99.90;;;6.85;100.00;97771.03;4988149;28;1278;-68
2023/12/14 09:42:39;;;;;;;;;;;7.40;99.90;;;6.97;100.00;97778.47;4984953;28;1903;-68
2023/12/14 09:45:08;;;;;;;;;;;7.50;99.90;;;7.00;100.00;97780.13;5015390;28;1209;-68
2023/12/14 09:47:36;;;;;;;;;;;7.50;99.90;;;6.89;100.00;97783.00;4987065;28;1364;-68
2023/12/14 09:50:05;;;;;;;;;;;7.50;99.90;;;7.15;100.00;97789.22;4988039;28;1146;-67
2023/12/14 09:52:33;;;;;;;;;;;7.60;99.90;;;7.02;100.00;97797.25;4986943;28;1295;-67
2023/12/14 09:55:03;;;;;;;;;;;7.60;99.90;;;7.06;100.00;97801.47;5016560;28;1487;-68
2023/12/14 09:57:30;;;;;;;;;;;7.60;99.90;;;7.16;100.00;97808.97;4985871;28;1077;-68
2023/12/14 09:59:58;;;;;;;;;;;7.60;99.90;;;7.01;100.00;97812.81;4986551;28;1035;-68
2023/12/14 10:02:26;;;;;;;;;;;7.60;99.90;;;6.77;100.00;97809.91;4986697;28;1907;-68
2023/12/14 10:04:53;;;;;;;;;;;7.50;99.90;;;6.80;100.00;97811.59;4986734;28;1904;-67
2023/12/14 10:07:22;;;;;;;;;;;7.50;99.90;;;6.83;100.00;97821.84;4986320;28;1243;-68
2023/12/14 10:09:49;;;;;;;;;;;7.50;99.90;;;7.19;100.00;97822.69;4987524;28;1042;-68
2023/12/14 10:12:17;;;;;;;;;;;7.50;99.90;;;7.40;100.00;97816.09;4987362;28;1320;-68
2023/12/14 10:14:44;;;;;;;;;;;7.70;99.90;;;7.29;100.00;97820.69;4986454;28;1405;-68
2023/12/14 10:17:16;;;;;;;;;;;7.70;99.90;;;7.36;100.00;97821.38;4984231;28;1442;-68
2023/12/14 10:19:46;;;;;;;;;;;7.80;99.90;;;7.31;100.00;97818.94;4985253;28;1604;-68
2023/12/14 10:22:15;;;;;;;;;;;7.80;99.90;;;7.32;100.00;97829.22;4985175;28;1938;-68
2023/12/14 10:24:43;;;;;;;;;;;7.80;99.90;;;7.45;100.00;97822.00;5018927;28;1058;-68
2023/12/14 10:27:11;;;;;;;;;;;7.90;99.90;;;7.39;100.00;97834.22;4987957;28;1061;-68
2023/12/14 10:29:39;;;;;;;;;;;7.90;99.90;;;7.22;100.00;97829.50;4986776;28;1121;-68
2023/12/14 10:32:08;;;;;;;;;;;7.90;99.90;;;7.32;100.00;97833.53;4988848;28;1233;-68
2023/12/14 10:34:35;;;;;;;;;;;8.00;99.90;;;7.15;100.00;97835.69;4987875;28;1090;-69
2023/12/14 10:37:05;;;;;;;;;;;7.90;99.90;;;7.30;100.00;97835.31;4985700;28;1101;-67
2023/12/14 10:39:36;;;;;;;;;;;7.90;99.90;;;7.36;100.00;97821.38;5014177;28;1160;-68
2023/12/14 10:42:04;;;;;;;;;;;7.90;99.90;;;7.38;100.00;97829.94;5015461;28;1903;-68
2023/12/14 10:44:45;;;;;;;;;;;8.00;99.90;;;7.61;100.00;97824.19;4986745;28;1231;-67
2023/12/14 10:47:33;;;;;;;;;;;8.20;99.90;;;7.66;100.00;97833.50;5010880;28;1199;-68
2023/12/14 10:50:03;;;;;;;;;;;8.20;99.90;;;7.72;100.00;97832.50;4985116;28;1105;-68
2023/12/14 10:52:33;;;;;;;;;;;8.20;99.90;;;7.80;100.00;97832.28;4985230;28;1301;-68
2023/12/14 10:55:07;;;;;;;;;;;8.40;99.90;;;7.91;100.00;97833.69;4984133;28;1211;-68
2023/12/14 10:57:34;;;;;;;;;;;8.40;99.90;;;7.81;100.00;97842.56;5017358;28;1073;-68
2023/12/14 11:00:07;;;;;;;;;;;8.40;99.90;;;7.82;100.00;97839.09;4988055;28;1050;-68
2023/12/14 11:02:42;;;;;;;;;;;8.40;99.90;;;7.78;100.00;97844.38;5017692;28;1963;-68
2023/12/14 11:05:12;;;;;;;;;;;8.40;99.90;;;7.85;100.00;97848.53;5020738;28;1279;-68
2023/12/14 11:07:46;;;;;;;;;;;8.30;99.90;;;7.86;100.00;97847.63;4988567;28;1237;-67
2023/12/14 11:10:14;;;;;;;;;;;8.40;99.90;;;7.84;100.00;97851.97;4966180;28;1167;-68
2023/12/14 11:12:52;;;;;;;;;;;8.40;99.90;;;8.06;100.00;97850.50;5022988;28;1237;-68
2023/12/14 11:15:19;;;;;;;;;;;8.50;99.90;;;7.94;100.00;97859.44;5019886;28;1038;-68
2023/12/14 11:18:09;;;;;;;;;;;8.60;99.90;;;8.33;100.00;97850.59;5021209;28;1155;-69
2023/12/14 11:20:46;;;;;;;;;;;8.70;99.90;;;8.12;100.00;97846.91;4989410;28;1371;-69
2023/12/14 11:23:31;;;;;;;;;;;8.80;99.90;;;7.95;100.00;97847.38;4990566;28;1919;-68
2023/12/14 11:25:59;;;;;;;;;;;8.80;99.90;;;8.07;100.00;97852.19;4991601;28;1354;-69
2023/12/14 11:28:27;;;;;;;;;;;8.70;99.90;;;8.29;100.00;97854.16;4989057;28;1047;-69
2023/12/14 11:30:55;;;;;;;;;;;8.70;99.90;;;7.96;100.00;97854.25;4987748;28;1153;-68
2023/12/14 11:33:23;;;;;;;;;;;8.80;99.90;;;8.07;100.00;97862.53;4988820;28;1304;-69
2023/12/14 11:35:54;;;;;;;;;;;8.80;99.90;;;8.32;100.00;97859.25;4990500;28;1243;-69